N501ST KSLC-KOGD
Flight info
| Callsign | N501ST |
|---|---|
| Flight time | 0h 13m |
| Altitude | 8000 |
| Route | DCT |
| Aircraft | TBM8/L-SDFGRWY/S |
Departure
| Time | 2026-05-05 14:17 |
|---|---|
| Airport | Salt Lake City International Airport (KSLC) |
Arrival
| Time | 2026-05-05 14:31 |
|---|---|
| Airport | Ogden Hinckley Airport (KOGD) |
| Time | Latitude | Longitude | Altitude | Speed | Heading |
|---|---|---|---|---|---|
| 2026-05-05 13:59 | 40.77555 | -111.95902 | 4229 ft | 0 kts | 1° |
| 2026-05-05 14:06 | 40.77559 | -111.95902 | 4229 ft | 3 kts | 1° |
| 2026-05-05 14:06 | 40.77579 | -111.95919 | 4233 ft | 4 kts | 274° |
| 2026-05-05 14:07 | 40.77579 | -111.95944 | 4240 ft | 1 kts | 270° |
| 2026-05-05 14:07 | 40.77579 | -111.95945 | 4240 ft | 0 kts | 270° |
| 2026-05-05 14:07 | 40.77579 | -111.95976 | 4235 ft | 10 kts | 269° |
| 2026-05-05 14:07 | 40.77594 | -111.96062 | 4229 ft | 10 kts | 345° |
| 2026-05-05 14:08 | 40.77662 | -111.96063 | 4229 ft | 10 kts | 359° |
| 2026-05-05 14:08 | 40.77735 | -111.96064 | 4229 ft | 11 kts | 0° |
| 2026-05-05 14:08 | 40.77817 | -111.96056 | 4229 ft | 12 kts | 22° |
| 2026-05-05 14:08 | 40.77894 | -111.96004 | 4228 ft | 13 kts | 359° |
| 2026-05-05 14:09 | 40.77990 | -111.96003 | 4228 ft | 14 kts | 0° |
| 2026-05-05 14:09 | 40.78092 | -111.96003 | 4228 ft | 15 kts | 0° |
| 2026-05-05 14:09 | 40.78199 | -111.96003 | 4228 ft | 16 kts | 360° |
| 2026-05-05 14:09 | 40.78313 | -111.96002 | 4229 ft | 17 kts | 360° |
| 2026-05-05 14:10 | 40.78430 | -111.96001 | 4229 ft | 17 kts | 2° |
| 2026-05-05 14:10 | 40.78552 | -111.96008 | 4229 ft | 18 kts | 357° |
| 2026-05-05 14:10 | 40.78681 | -111.96014 | 4229 ft | 19 kts | 1° |
| 2026-05-05 14:10 | 40.78814 | -111.96005 | 4229 ft | 20 kts | 5° |
| 2026-05-05 14:11 | 40.78953 | -111.96004 | 4229 ft | 20 kts | 358° |
| 2026-05-05 14:11 | 40.79095 | -111.96004 | 4229 ft | 21 kts | 359° |
| 2026-05-05 14:11 | 40.79242 | -111.96003 | 4229 ft | 21 kts | 360° |
| 2026-05-05 14:11 | 40.79393 | -111.96007 | 4229 ft | 22 kts | 2° |
| 2026-05-05 14:12 | 40.79546 | -111.96003 | 4228 ft | 22 kts | 360° |
| 2026-05-05 14:12 | 40.79691 | -111.96003 | 4229 ft | 20 kts | 360° |
| 2026-05-05 14:12 | 40.79821 | -111.96004 | 4229 ft | 16 kts | 359° |
| 2026-05-05 14:12 | 40.79901 | -111.96005 | 4229 ft | 8 kts | 0° |
| 2026-05-05 14:13 | 40.79940 | -111.96043 | 4229 ft | 4 kts | 274° |
| 2026-05-05 14:13 | 40.79940 | -111.96044 | 4229 ft | 0 kts | 275° |
| 2026-05-05 14:15 | 40.79940 | -111.96049 | 4229 ft | 4 kts | 272° |
| 2026-05-05 14:16 | 40.79930 | -111.96105 | 4228 ft | 7 kts | 232° |
| 2026-05-05 14:16 | 40.79877 | -111.96146 | 4227 ft | 11 kts | 212° |
| 2026-05-05 14:16 | 40.79799 | -111.96201 | 4227 ft | 14 kts | 196° |
| 2026-05-05 14:16 | 40.79619 | -111.96206 | 4225 ft | 46 kts | 179° |
| 2026-05-05 14:17 | 40.79150 | -111.96207 | 4228 ft | 87 kts | 180° |
| 2026-05-05 14:17 | 40.78507 | -111.96200 | 4439 ft | 97 kts | 169° |
| 2026-05-05 14:17 | 40.77813 | -111.96159 | 4812 ft | 104 kts | 174° |
| 2026-05-05 14:17 | 40.77034 | -111.96147 | 5071 ft | 119 kts | 180° |
| 2026-05-05 14:18 | 40.76180 | -111.96196 | 5433 ft | 125 kts | 182° |
| 2026-05-05 14:18 | 40.75294 | -111.96248 | 5810 ft | 130 kts | 179° |
| 2026-05-05 14:18 | 40.74377 | -111.96248 | 6202 ft | 133 kts | 181° |
| 2026-05-05 14:18 | 40.73513 | -111.96724 | 6526 ft | 142 kts | 224° |
| 2026-05-05 14:19 | 40.73199 | -111.97948 | 6907 ft | 150 kts | 274° |
| 2026-05-05 14:19 | 40.73702 | -111.99125 | 7397 ft | 151 kts | 319° |
| 2026-05-05 14:19 | 40.74670 | -111.99722 | 7755 ft | 158 kts | 339° |
| 2026-05-05 14:19 | 40.75736 | -112.00223 | 7982 ft | 172 kts | 340° |
| 2026-05-05 14:20 | 40.76946 | -112.00749 | 8026 ft | 194 kts | 342° |
| 2026-05-05 14:20 | 40.78292 | -112.01271 | 8011 ft | 207 kts | 342° |
| 2026-05-05 14:20 | 40.79694 | -112.01844 | 8010 ft | 213 kts | 340° |
| 2026-05-05 14:20 | 40.81111 | -112.02474 | 8019 ft | 216 kts | 340° |
| 2026-05-05 14:21 | 40.82551 | -112.03091 | 8015 ft | 219 kts | 346° |
| 2026-05-05 14:21 | 40.84072 | -112.03286 | 8057 ft | 220 kts | 359° |
| 2026-05-05 14:21 | 40.85610 | -112.03198 | 8039 ft | 222 kts | 2° |
| 2026-05-05 14:21 | 40.87161 | -112.03101 | 8009 ft | 224 kts | 2° |
| 2026-05-05 14:22 | 40.88725 | -112.03001 | 7979 ft | 226 kts | 2° |
| 2026-05-05 14:22 | 40.90271 | -112.02956 | 7977 ft | 224 kts | 356° |
| 2026-05-05 14:22 | 40.91822 | -112.03178 | 7939 ft | 225 kts | 351° |
| 2026-05-05 14:22 | 40.93374 | -112.03459 | 7904 ft | 225 kts | 351° |
| 2026-05-05 14:23 | 40.94924 | -112.03704 | 7937 ft | 223 kts | 352° |
| 2026-05-05 14:23 | 40.96454 | -112.03953 | 7986 ft | 221 kts | 351° |
| 2026-05-05 14:23 | 40.97979 | -112.04262 | 7973 ft | 222 kts | 350° |
| 2026-05-05 14:23 | 40.99512 | -112.04552 | 7984 ft | 223 kts | 350° |
| 2026-05-05 14:24 | 41.01050 | -112.04845 | 7982 ft | 224 kts | 350° |
| 2026-05-05 14:24 | 41.02602 | -112.05120 | 7998 ft | 225 kts | 351° |
| 2026-05-05 14:24 | 41.04149 | -112.05390 | 8032 ft | 224 kts | 350° |
| 2026-05-05 14:24 | 41.05695 | -112.05688 | 7955 ft | 228 kts | 350° |
| 2026-05-05 14:25 | 41.07281 | -112.05967 | 7709 ft | 228 kts | 352° |
| 2026-05-05 14:25 | 41.08853 | -112.06190 | 7492 ft | 227 kts | 353° |
| 2026-05-05 14:25 | 41.10420 | -112.06387 | 7307 ft | 226 kts | 354° |
| 2026-05-05 14:25 | 41.11985 | -112.06546 | 7111 ft | 224 kts | 355° |
| 2026-05-05 14:26 | 41.13541 | -112.06689 | 6895 ft | 224 kts | 355° |
| 2026-05-05 14:26 | 41.15096 | -112.06823 | 6635 ft | 224 kts | 355° |
| 2026-05-05 14:26 | 41.16649 | -112.06901 | 6393 ft | 222 kts | 5° |
| 2026-05-05 14:26 | 41.18000 | -112.06387 | 6275 ft | 188 kts | 31° |
| 2026-05-05 14:27 | 41.19017 | -112.05454 | 5994 ft | 169 kts | 41° |
| 2026-05-05 14:27 | 41.19857 | -112.04538 | 5977 ft | 148 kts | 44° |
| 2026-05-05 14:27 | 41.20645 | -112.03649 | 6003 ft | 148 kts | 43° |
| 2026-05-05 14:27 | 41.21452 | -112.02807 | 6035 ft | 147 kts | 41° |
| 2026-05-05 14:28 | 41.22222 | -112.01955 | 6051 ft | 141 kts | 44° |
| 2026-05-05 14:28 | 41.22959 | -112.01117 | 6035 ft | 138 kts | 44° |
| 2026-05-05 14:28 | 41.23682 | -112.00287 | 6034 ft | 136 kts | 45° |
| 2026-05-05 14:28 | 41.24341 | -111.99395 | 6036 ft | 133 kts | 59° |
| 2026-05-05 14:29 | 41.24598 | -111.98274 | 6011 ft | 127 kts | 98° |
| 2026-05-05 14:29 | 41.24256 | -111.97284 | 5833 ft | 116 kts | 143° |
| 2026-05-05 14:29 | 41.23521 | -111.96957 | 5633 ft | 113 kts | 180° |
| 2026-05-05 14:29 | 41.22787 | -111.97172 | 5559 ft | 99 kts | 201° |
| 2026-05-05 14:30 | 41.22242 | -111.97623 | 5422 ft | 90 kts | 212° |
| 2026-05-05 14:30 | 41.21758 | -111.98185 | 5217 ft | 95 kts | 221° |
| 2026-05-05 14:30 | 41.21308 | -111.98816 | 4948 ft | 93 kts | 218° |
| 2026-05-05 14:30 | 41.20851 | -111.99400 | 4710 ft | 89 kts | 220° |
| 2026-05-05 14:31 | 41.20428 | -111.99960 | 4523 ft | 85 kts | 221° |
| 2026-05-05 14:31 | 41.20025 | -112.00487 | 4430 ft | 75 kts | 226° |
| 2026-05-05 14:31 | 41.19729 | -112.00862 | 4443 ft | 40 kts | 225° |
| 2026-05-05 14:31 | 41.19600 | -112.01035 | 4451 ft | 16 kts | 226° |
| 2026-05-05 14:32 | 41.19522 | -112.01139 | 4453 ft | 17 kts | 224° |
| 2026-05-05 14:32 | 41.19454 | -112.01220 | 4455 ft | 6 kts | 195° |
| 2026-05-05 14:32 | 41.19420 | -112.01185 | 4455 ft | 6 kts | 111° |
| 2026-05-05 14:32 | 41.19406 | -112.01134 | 4454 ft | 6 kts | 110° |
| 2026-05-05 14:33 | 41.19393 | -112.01080 | 4453 ft | 6 kts | 105° |
| 2026-05-05 14:33 | 41.19401 | -112.01031 | 4451 ft | 6 kts | 48° |
| 2026-05-05 14:33 | 41.19427 | -112.00996 | 4450 ft | 5 kts | 46° |
| 2026-05-05 14:33 | 41.19442 | -112.00962 | 4449 ft | 4 kts | 95° |
| 2026-05-05 14:34 | 41.19429 | -112.00938 | 4449 ft | 3 kts | 136° |
| 2026-05-05 14:34 | 41.19417 | -112.00929 | 4449 ft | 3 kts | 176° |
| 2026-05-05 14:34 | 41.19395 | -112.00946 | 4450 ft | 2 kts | 223° |